createdAt,value
2018-03-02T00:00:32.287Z,14.53
2018-03-02T00:03:00.399Z,14.73
2018-03-02T00:05:28.549Z,13.93
2018-03-02T00:07:56.643Z,13.80
2018-03-02T00:10:24.744Z,15.70
2018-03-02T00:12:52.858Z,15.73
2018-03-02T00:15:20.971Z,15.20
2018-03-02T00:17:49.084Z,15.60
2018-03-02T00:20:17.218Z,16.03
2018-03-02T00:22:45.656Z,15.90
2018-03-02T00:25:13.773Z,15.90
2018-03-02T00:27:41.894Z,15.17
2018-03-02T00:30:10.215Z,15.83
2018-03-02T00:32:38.352Z,14.60
2018-03-02T00:35:06.466Z,16.07
2018-03-02T00:37:34.596Z,15.63
2018-03-02T00:40:02.728Z,16.50
2018-03-02T00:42:30.858Z,16.30
2018-03-02T00:44:58.976Z,17.33
2018-03-02T00:47:27.079Z,16.23
2018-03-02T00:49:55.211Z,17.33
2018-03-02T00:52:23.308Z,17.07
2018-03-02T00:54:51.422Z,16.77
2018-03-02T00:57:22.646Z,16.63
2018-03-02T00:59:50.791Z,16.40
2018-03-02T01:02:18.914Z,12.90
2018-03-02T01:04:47.023Z,16.73
2018-03-02T01:07:15.182Z,17.03
2018-03-02T01:09:43.298Z,16.67
2018-03-02T01:12:11.409Z,15.67
2018-03-02T01:14:39.522Z,16.67
2018-03-02T01:17:07.631Z,17.53
2018-03-02T01:19:35.739Z,15.43
2018-03-02T01:22:03.859Z,17.47
2018-03-02T01:24:31.981Z,17.00
2018-03-02T01:27:00.094Z,16.53
2018-03-02T01:29:28.224Z,17.67
2018-03-02T01:31:56.335Z,16.77
2018-03-02T01:34:24.461Z,16.70
2018-03-02T01:36:52.604Z,16.77
2018-03-02T01:39:20.699Z,17.00
2018-03-02T01:41:48.819Z,17.80
2018-03-02T01:44:16.953Z,17.70
2018-03-02T01:46:45.060Z,17.03
2018-03-02T01:49:13.169Z,17.50
2018-03-02T01:51:47.936Z,16.60
2018-03-02T01:54:16.037Z,17.43
2018-03-02T01:56:44.143Z,17.57
2018-03-02T01:59:12.260Z,17.23
2018-03-02T02:01:40.366Z,17.83
2018-03-02T02:04:08.497Z,17.80
2018-03-02T02:06:36.599Z,16.53
2018-03-02T02:09:05.603Z,15.23
2018-03-02T02:11:33.729Z,17.23
2018-03-02T02:14:01.837Z,16.93
2018-03-02T02:16:29.964Z,18.27
2018-03-02T02:18:58.059Z,18.07
2018-03-02T02:21:26.163Z,18.50
2018-03-02T02:23:54.296Z,17.73
2018-03-02T02:26:22.398Z,18.87
2018-03-02T02:28:50.516Z,17.77
2018-03-02T02:31:18.640Z,19.00
2018-03-02T02:33:46.735Z,18.47
2018-03-02T02:36:14.843Z,18.87
2018-03-02T02:38:42.988Z,19.40
2018-03-02T02:41:11.183Z,19.73
2018-03-02T02:43:39.314Z,17.53
2018-03-02T02:46:07.431Z,18.63
2018-03-02T02:48:35.531Z,17.83
2018-03-02T02:51:03.634Z,19.20
2018-03-02T02:53:31.769Z,19.30
2018-03-02T02:55:59.875Z,19.07
2018-03-02T02:58:27.982Z,18.53
2018-03-02T03:00:56.122Z,19.83
2018-03-02T03:03:24.223Z,18.73
2018-03-02T03:05:52.332Z,18.17
2018-03-02T03:08:20.443Z,18.27
2018-03-02T03:10:48.554Z,18.87
2018-03-02T03:13:16.673Z,19.83
2018-03-02T03:15:44.793Z,20.37
2018-03-02T03:18:12.933Z,19.13
2018-03-02T03:20:41.026Z,19.27
2018-03-02T03:23:09.143Z,19.30
2018-03-02T03:25:37.278Z,19.27
2018-03-02T03:28:05.385Z,19.33
2018-03-02T03:30:33.503Z,19.80
2018-03-02T03:33:01.625Z,19.97
2018-03-02T03:35:29.831Z,18.43
2018-03-02T03:37:57.936Z,20.77
2018-03-02T03:40:26.060Z,17.40
2018-03-02T03:42:54.214Z,20.40
2018-03-02T03:45:22.342Z,19.10
2018-03-02T03:47:50.464Z,19.70
2018-03-02T03:50:18.605Z,20.50
2018-03-02T03:52:46.750Z,20.37
2018-03-02T03:55:14.858Z,19.67
2018-03-02T03:57:42.990Z,19.00
2018-03-02T04:00:11.121Z,20.47
2018-03-02T04:02:39.224Z,19.90
2018-03-02T04:05:08.237Z,19.37
2018-03-02T04:07:36.438Z,18.20
2018-03-02T04:10:04.501Z,19.77
2018-03-02T04:12:32.615Z,19.37
2018-03-02T04:15:00.745Z,19.57
2018-03-02T04:17:28.864Z,20.27
2018-03-02T04:19:57.000Z,19.53
2018-03-02T04:22:25.122Z,19.47
2018-03-02T04:24:53.244Z,21.50
2018-03-02T04:27:21.363Z,21.43
2018-03-02T04:29:49.501Z,19.63
2018-03-02T04:32:17.625Z,21.80
2018-03-02T04:34:45.764Z,20.30
2018-03-02T04:37:13.900Z,21.30
2018-03-02T04:39:41.995Z,21.13
2018-03-02T04:42:10.107Z,21.17
2018-03-02T04:44:38.238Z,21.90
2018-03-02T04:47:06.339Z,21.67
2018-03-02T04:49:34.462Z,20.17
2018-03-02T04:52:02.577Z,20.87
2018-03-02T04:54:30.719Z,21.27
2018-03-02T04:56:58.842Z,20.83
2018-03-02T04:59:26.946Z,21.27
2018-03-02T05:01:55.076Z,21.23
2018-03-02T05:04:23.212Z,20.87
2018-03-02T05:06:51.336Z,20.80
2018-03-02T05:09:19.541Z,21.37
2018-03-02T05:11:47.671Z,20.53
2018-03-02T05:14:15.789Z,22.53
2018-03-02T05:16:43.902Z,21.20
2018-03-02T05:19:12.060Z,21.90
2018-03-02T05:21:40.157Z,21.10
2018-03-02T05:24:08.263Z,19.10
2018-03-02T05:26:36.387Z,20.83
2018-03-02T05:29:04.499Z,20.80
2018-03-02T05:31:32.636Z,20.63
2018-03-02T05:34:00.749Z,19.90
2018-03-02T05:36:28.880Z,22.13
2018-03-02T05:38:56.993Z,23.33
2018-03-02T05:41:25.125Z,21.50
2018-03-02T05:43:53.249Z,23.10
2018-03-02T05:46:21.355Z,23.20
2018-03-02T05:48:49.494Z,22.10
2018-03-02T05:51:17.618Z,22.43
2018-03-02T05:53:45.749Z,22.27
2018-03-02T05:56:13.875Z,23.20
2018-03-02T05:58:41.992Z,22.80
2018-03-02T06:01:10.120Z,22.57
2018-03-02T06:03:38.244Z,22.67
2018-03-02T06:06:06.372Z,23.30
2018-03-02T06:08:34.501Z,22.63
2018-03-02T06:11:02.625Z,22.43
2018-03-02T06:13:30.741Z,24.60
2018-03-02T06:15:58.885Z,23.60
2018-03-02T06:18:27.040Z,23.33
2018-03-02T06:20:55.157Z,23.10
2018-03-02T06:23:23.312Z,25.20
2018-03-02T06:25:51.437Z,24.10
2018-03-02T06:28:19.585Z,24.17
2018-03-02T06:30:47.719Z,24.17
2018-03-02T06:33:15.839Z,22.93
2018-03-02T06:35:43.950Z,22.37
2018-03-02T06:38:12.081Z,25.47
2018-03-02T06:40:40.603Z,23.03
2018-03-02T06:43:08.731Z,24.13
2018-03-02T06:45:36.846Z,21.33
2018-03-02T06:48:04.959Z,24.40
2018-03-02T06:50:33.100Z,25.33
2018-03-02T06:53:01.207Z,24.87
2018-03-02T06:55:29.357Z,23.87
2018-03-02T06:57:57.468Z,23.83
2018-03-02T07:00:25.594Z,24.37
2018-03-02T07:02:53.746Z,24.47
2018-03-02T07:05:21.867Z,25.33
2018-03-02T07:07:49.971Z,24.80
2018-03-02T07:10:18.107Z,24.30
2018-03-02T07:12:46.215Z,25.07
2018-03-02T07:15:14.341Z,23.67
2018-03-02T07:17:42.455Z,25.93
2018-03-02T07:20:10.597Z,26.70
2018-03-02T07:22:38.710Z,25.50
2018-03-02T07:25:06.843Z,25.13
2018-03-02T07:27:34.979Z,24.77
2018-03-02T07:30:03.117Z,25.57
2018-03-02T07:32:31.235Z,25.50
2018-03-02T07:34:59.353Z,26.73
2018-03-02T07:37:27.508Z,24.60
2018-03-02T07:39:55.629Z,25.57
2018-03-02T07:42:23.749Z,26.63
2018-03-02T07:44:51.867Z,25.53
2018-03-02T07:47:19.967Z,25.33
2018-03-02T07:49:48.114Z,24.73
2018-03-02T07:52:16.211Z,26.73
2018-03-02T07:54:44.341Z,26.53
2018-03-02T07:57:12.453Z,26.00
2018-03-02T07:59:40.558Z,25.80
2018-03-02T08:02:08.685Z,26.07
2018-03-02T08:04:36.806Z,26.80
2018-03-02T08:07:04.938Z,26.63
2018-03-02T08:09:33.043Z,27.97
2018-03-02T08:12:01.177Z,26.93
2018-03-02T08:14:29.289Z,25.53
2018-03-02T08:16:57.417Z,26.80
2018-03-02T08:19:25.561Z,28.10
2018-03-02T08:21:53.673Z,23.30
2018-03-02T08:24:21.778Z,24.60
2018-03-02T08:26:49.903Z,26.77
2018-03-02T08:29:18.033Z,28.70
2018-03-02T08:31:46.164Z,24.90
2018-03-02T08:34:14.278Z,27.57
2018-03-02T08:36:42.404Z,28.73
2018-03-02T08:39:10.515Z,27.53
2018-03-02T08:41:38.650Z,27.10
2018-03-02T08:44:06.757Z,27.93
2018-03-02T08:46:34.865Z,26.73
2018-03-02T08:49:03.038Z,27.33
2018-03-02T08:51:31.175Z,27.30
2018-03-02T08:53:59.284Z,29.23
2018-03-02T08:56:27.409Z,27.30
2018-03-02T08:58:55.529Z,28.40
2018-03-02T09:01:23.649Z,29.87
2018-03-02T09:03:51.764Z,28.53
2018-03-02T09:06:19.871Z,28.97
2018-03-02T09:08:47.998Z,28.30
2018-03-02T09:11:16.146Z,27.83
2018-03-02T09:13:44.239Z,27.53
2018-03-02T09:16:12.381Z,27.93
2018-03-02T09:18:40.493Z,30.03
2018-03-02T09:21:08.618Z,28.60
2018-03-02T09:23:36.752Z,28.17
2018-03-02T09:26:05.129Z,27.80
2018-03-02T09:28:33.259Z,28.17
2018-03-02T09:31:01.386Z,27.80
2018-03-02T09:33:29.501Z,28.63
2018-03-02T09:35:57.620Z,29.73
2018-03-02T09:38:25.748Z,28.53
2018-03-02T09:40:54.210Z,28.03
2018-03-02T09:43:22.316Z,28.90
2018-03-02T09:45:50.436Z,28.20
2018-03-02T09:48:18.585Z,28.57
2018-03-02T09:50:46.689Z,28.97
2018-03-02T09:53:14.843Z,26.10
2018-03-02T09:55:42.963Z,24.57
2018-03-02T09:58:11.391Z,30.23
2018-03-02T10:00:45.833Z,28.20
2018-03-02T10:03:13.955Z,28.37
2018-03-02T10:05:42.054Z,28.83
2018-03-02T10:08:10.208Z,29.20
2018-03-02T10:10:38.328Z,29.17
2018-03-02T10:13:06.436Z,29.47
2018-03-02T10:15:34.560Z,30.17
2018-03-02T10:18:02.668Z,29.67
2018-03-02T10:20:30.773Z,29.27
2018-03-02T10:22:59.787Z,30.43
2018-03-02T10:25:27.899Z,28.60
2018-03-02T10:27:56.033Z,30.53
2018-03-02T10:30:24.155Z,29.23
2018-03-02T10:32:52.277Z,28.83
2018-03-02T10:35:20.431Z,28.63
2018-03-02T10:37:48.550Z,27.87
2018-03-02T10:40:16.677Z,30.20
2018-03-02T10:42:44.820Z,28.60
2018-03-02T10:45:12.941Z,29.80
2018-03-02T10:47:41.069Z,30.83
2018-03-02T10:50:09.187Z,28.73
2018-03-02T10:52:37.316Z,27.97
2018-03-02T10:55:05.432Z,29.20
2018-03-02T10:57:33.629Z,29.73
2018-03-02T11:00:01.736Z,30.37
2018-03-02T11:02:29.845Z,30.47
2018-03-02T11:05:03.536Z,30.80
2018-03-02T11:07:31.635Z,28.00
2018-03-02T11:09:59.738Z,29.23
2018-03-02T11:12:31.092Z,30.83
2018-03-02T11:14:59.219Z,28.67
2018-03-02T11:17:27.345Z,29.83
2018-03-02T11:19:55.448Z,30.90
2018-03-02T11:22:23.555Z,30.57
2018-03-02T11:24:51.683Z,30.23
2018-03-02T11:27:19.794Z,30.13
2018-03-02T11:29:47.890Z,29.17
2018-03-02T11:32:16.055Z,29.73
2018-03-02T11:34:44.205Z,28.80
2018-03-02T11:37:12.309Z,29.53
2018-03-02T11:39:40.469Z,29.37
2018-03-02T11:42:08.571Z,29.53
2018-03-02T11:44:36.672Z,29.13
2018-03-02T11:47:04.846Z,29.97
2018-03-02T11:49:32.901Z,29.13
2018-03-02T11:52:01.020Z,29.73
2018-03-02T11:54:29.188Z,29.10
2018-03-02T11:56:57.286Z,28.13
2018-03-02T11:59:27.376Z,30.40
2018-03-02T12:01:55.498Z,29.67
2018-03-02T12:04:23.604Z,31.33
2018-03-02T12:06:51.734Z,29.97
2018-03-02T12:09:19.861Z,29.80
2018-03-02T12:11:47.969Z,30.00
2018-03-02T12:14:16.088Z,29.40
2018-03-02T12:16:44.288Z,31.03
2018-03-02T12:19:12.419Z,30.40
2018-03-02T12:21:40.555Z,28.90
2018-03-02T12:24:08.660Z,30.33
2018-03-02T12:26:36.801Z,29.93
2018-03-02T12:29:04.920Z,29.17
2018-03-02T12:31:33.019Z,30.50
2018-03-02T12:34:01.136Z,29.60
2018-03-02T12:36:32.758Z,29.93
2018-03-02T12:39:00.891Z,31.27
2018-03-02T12:41:28.988Z,29.53
2018-03-02T12:43:57.124Z,28.33
2018-03-02T12:46:26.160Z,29.23
2018-03-02T12:48:54.264Z,29.70
2018-03-02T12:51:22.386Z,30.00
2018-03-02T12:53:50.629Z,29.33
2018-03-02T12:56:19.455Z,30.43
2018-03-02T12:58:47.590Z,29.83
2018-03-02T13:01:15.708Z,29.83
2018-03-02T13:03:43.893Z,28.80
2018-03-02T13:06:12.000Z,27.93
2018-03-02T13:08:40.136Z,29.43
2018-03-02T13:11:08.265Z,28.77
2018-03-02T13:13:36.379Z,29.50
2018-03-02T13:16:04.501Z,29.83
2018-03-02T13:18:42.480Z,29.20
2018-03-02T13:21:10.605Z,29.33
2018-03-02T13:23:38.719Z,29.57
2018-03-02T13:26:06.858Z,29.07
2018-03-02T13:28:46.784Z,30.17
2018-03-02T13:31:14.909Z,30.53
2018-03-02T13:33:54.913Z,31.03
2018-03-02T13:36:23.035Z,29.53
2018-03-02T13:38:51.154Z,30.00
2018-03-02T13:41:31.157Z,30.90
2018-03-02T13:44:02.505Z,29.10
2018-03-02T13:46:30.646Z,29.73
2018-03-02T13:49:10.533Z,28.77
2018-03-02T13:51:38.661Z,29.67
2018-03-02T13:54:06.787Z,27.60
2018-03-02T13:56:46.724Z,29.10
2018-03-02T13:59:14.849Z,28.63
2018-03-02T14:01:42.968Z,28.93
2018-03-02T14:04:23.103Z,29.23
2018-03-02T14:06:51.222Z,30.33
2018-03-02T14:09:19.354Z,29.90
2018-03-02T14:11:47.525Z,29.70
2018-03-02T14:14:15.647Z,28.53
2018-03-02T14:16:47.396Z,28.60
2018-03-02T14:19:15.534Z,27.23
2018-03-02T14:21:43.667Z,30.67
2018-03-02T14:24:11.786Z,28.53
2018-03-02T14:26:39.901Z,29.37
2018-03-02T14:29:08.149Z,30.47
2018-03-02T14:31:37.127Z,28.33
2018-03-02T14:34:05.308Z,29.87
2018-03-02T14:36:33.372Z,29.73
2018-03-02T14:39:01.500Z,28.57
2018-03-02T14:41:29.603Z,30.27
2018-03-02T14:43:57.722Z,29.33
2018-03-02T14:46:25.865Z,29.67
2018-03-02T14:48:53.994Z,30.77
2018-03-02T14:51:22.117Z,30.30
2018-03-02T14:53:50.254Z,29.23
2018-03-02T14:56:18.374Z,28.87
2018-03-02T14:58:46.496Z,30.33
2018-03-02T15:01:14.615Z,28.50
2018-03-02T15:03:42.710Z,29.23
2018-03-02T15:06:14.557Z,33.08
2018-03-02T15:08:42.700Z,30.53
2018-03-02T15:11:10.946Z,30.70
2018-03-02T15:13:39.083Z,29.07
2018-03-02T15:16:07.213Z,28.80
2018-03-02T15:18:35.319Z,28.40
2018-03-02T15:21:03.477Z,29.40
2018-03-02T15:23:31.875Z,28.33
2018-03-02T15:26:00.009Z,28.70
2018-03-02T15:28:28.149Z,28.57
2018-03-02T15:30:56.283Z,29.10
2018-03-02T15:33:24.387Z,29.43
2018-03-02T15:35:52.562Z,27.87
2018-03-02T15:38:20.674Z,28.57
2018-03-02T15:40:48.863Z,29.20
2018-03-02T15:43:17.009Z,28.93
2018-03-02T15:45:45.132Z,28.30
2018-03-02T15:48:13.259Z,28.13
2018-03-02T15:50:41.405Z,30.87
2018-03-02T15:53:09.531Z,30.20
2018-03-02T15:55:37.623Z,28.87
2018-03-02T15:58:05.744Z,28.93
2018-03-02T16:00:33.852Z,28.57
2018-03-02T16:03:01.983Z,28.17
2018-03-02T16:05:30.108Z,27.80
2018-03-02T16:07:58.226Z,28.50
2018-03-02T16:10:26.336Z,27.50
2018-03-02T16:12:54.471Z,29.83
2018-03-02T16:15:22.641Z,30.43
2018-03-02T16:17:50.772Z,29.33
2018-03-02T16:20:18.933Z,28.80
2018-03-02T16:22:47.040Z,30.37
2018-03-02T16:25:15.152Z,28.70
2018-03-02T16:27:43.272Z,28.27
2018-03-02T16:30:11.433Z,28.83
2018-03-02T16:32:39.574Z,28.57
2018-03-02T16:35:07.673Z,29.77
2018-03-02T16:37:36.379Z,28.77
2018-03-02T16:40:04.558Z,29.33
2018-03-02T16:42:32.681Z,28.77
2018-03-02T16:45:00.814Z,29.97
2018-03-02T16:47:28.973Z,29.27
2018-03-02T16:49:57.103Z,29.47
2018-03-02T16:52:25.235Z,30.23
2018-03-02T16:54:53.366Z,28.60
2018-03-02T16:57:21.560Z,28.97
2018-03-02T16:59:49.655Z,29.20
2018-03-02T17:02:17.896Z,32.37
2018-03-02T17:04:46.023Z,29.80
2018-03-02T17:07:14.177Z,30.30
2018-03-02T17:09:42.279Z,31.40
2018-03-02T17:12:10.425Z,32.47
2018-03-02T17:14:38.565Z,29.80
2018-03-02T17:17:09.705Z,30.23
2018-03-02T17:19:37.828Z,30.93
2018-03-02T17:22:06.030Z,30.47
2018-03-02T17:24:34.151Z,31.87
2018-03-02T17:27:02.393Z,30.43
2018-03-02T17:29:30.530Z,31.53
2018-03-02T17:31:58.610Z,31.27
2018-03-02T17:34:26.757Z,32.07
2018-03-02T17:36:54.860Z,32.27
2018-03-02T17:39:22.982Z,32.00
2018-03-02T17:41:51.116Z,31.80
2018-03-02T17:44:19.207Z,33.20
2018-03-02T17:46:47.323Z,32.20
2018-03-02T17:49:15.428Z,30.87
2018-03-02T17:51:43.553Z,31.17
2018-03-02T17:54:11.684Z,32.03
2018-03-02T17:56:39.841Z,29.87
2018-03-02T17:59:07.962Z,32.27
2018-03-02T18:01:36.078Z,33.20
2018-03-02T18:04:04.205Z,31.63
2018-03-02T18:06:32.330Z,33.33
2018-03-02T18:09:00.449Z,31.57
2018-03-02T18:11:28.584Z,32.50
2018-03-02T18:13:56.705Z,31.47
2018-03-02T18:16:24.817Z,33.47
2018-03-02T18:18:52.912Z,32.60
2018-03-02T18:21:21.047Z,33.10
2018-03-02T18:23:49.177Z,33.10
2018-03-02T18:26:17.434Z,31.93
2018-03-02T18:28:45.536Z,33.83
2018-03-02T18:31:13.653Z,35.27
2018-03-02T18:33:41.797Z,32.73
2018-03-02T18:36:09.925Z,33.47
2018-03-02T18:38:38.030Z,33.30
2018-03-02T18:41:06.205Z,34.70
2018-03-02T18:43:34.322Z,34.97
2018-03-02T18:46:02.450Z,34.73
2018-03-02T18:48:30.573Z,35.37
2018-03-02T18:50:58.682Z,34.40
2018-03-02T18:53:26.792Z,36.67
2018-03-02T18:55:54.896Z,36.90
2018-03-02T18:58:23.013Z,34.43
2018-03-02T19:00:51.159Z,34.97
2018-03-02T19:03:19.266Z,36.33
2018-03-02T19:05:47.383Z,35.33
2018-03-02T19:08:15.515Z,35.47
2018-03-02T19:10:43.681Z,35.70
2018-03-02T19:13:11.839Z,36.83
2018-03-02T19:15:39.969Z,34.73
2018-03-02T19:18:08.086Z,38.23
2018-03-02T19:20:36.198Z,35.93
2018-03-02T19:23:04.316Z,34.97
2018-03-02T19:25:32.491Z,35.60
2018-03-02T19:28:00.587Z,34.83
2018-03-02T19:30:28.729Z,35.07
2018-03-02T19:32:56.835Z,34.93
2018-03-02T19:35:24.928Z,35.53
2018-03-02T19:37:53.063Z,38.23
2018-03-02T19:40:21.178Z,35.40
2018-03-02T19:42:49.291Z,35.70
2018-03-02T19:45:17.438Z,35.43
2018-03-02T19:47:45.562Z,34.07
2018-03-02T19:50:13.762Z,35.40
2018-03-02T19:52:42.817Z,35.73
2018-03-02T19:55:10.920Z,35.57
2018-03-02T19:57:39.035Z,35.73
2018-03-02T20:00:07.177Z,34.83
2018-03-02T20:02:35.307Z,35.23
2018-03-02T20:05:03.413Z,35.10
2018-03-02T20:07:31.547Z,33.90
2018-03-02T20:09:59.652Z,36.07
2018-03-02T20:12:27.778Z,35.07
2018-03-02T20:14:55.905Z,34.97
2018-03-02T20:17:24.022Z,34.43
2018-03-02T20:19:52.165Z,35.77
2018-03-02T20:22:20.260Z,35.13
2018-03-02T20:24:48.362Z,34.03
2018-03-02T20:27:16.485Z,33.67
2018-03-02T20:29:44.592Z,32.93
2018-03-02T20:32:12.736Z,33.87
2018-03-02T20:34:40.858Z,35.37
2018-03-02T20:37:08.967Z,35.00
2018-03-02T20:39:37.082Z,34.90
2018-03-02T20:42:05.265Z,33.70
2018-03-02T20:44:33.408Z,35.43
2018-03-02T20:47:01.535Z,34.47
2018-03-02T20:49:29.690Z,33.43
2018-03-02T20:51:57.791Z,34.03
2018-03-02T20:54:25.906Z,34.33
2018-03-02T20:56:54.041Z,34.60
2018-03-02T20:59:22.145Z,33.63
2018-03-02T21:01:50.251Z,34.80
2018-03-02T21:04:18.365Z,35.07
2018-03-02T21:06:46.480Z,35.17
2018-03-02T21:09:14.596Z,36.07
2018-03-02T21:11:42.729Z,35.97
2018-03-02T21:14:10.846Z,35.93
2018-03-02T21:16:38.967Z,37.20
2018-03-02T21:19:07.084Z,34.57
2018-03-02T21:21:35.203Z,35.17
2018-03-02T21:24:03.326Z,35.83
2018-03-02T21:26:31.782Z,37.07
2018-03-02T21:28:59.902Z,37.20
2018-03-02T21:31:28.030Z,36.87
2018-03-02T21:33:56.127Z,37.73
2018-03-02T21:36:24.231Z,38.40
2018-03-02T21:38:52.344Z,37.83
2018-03-02T21:41:20.491Z,39.00
2018-03-02T21:43:48.769Z,39.40
2018-03-02T21:46:17.056Z,41.53
2018-03-02T21:48:45.175Z,39.30
2018-03-02T21:51:13.299Z,38.70
2018-03-02T21:53:41.414Z,41.17
2018-03-02T21:56:09.533Z,42.53
2018-03-02T21:58:37.636Z,43.20
2018-03-02T22:01:05.748Z,40.10
2018-03-02T22:03:33.844Z,40.87
2018-03-02T22:06:01.959Z,42.40
2018-03-02T22:08:30.151Z,40.90
2018-03-02T22:10:58.243Z,41.33
2018-03-02T22:13:26.373Z,43.47
2018-03-02T22:15:54.493Z,42.67
2018-03-02T22:18:26.226Z,42.47
2018-03-02T22:20:54.727Z,40.50
2018-03-02T22:23:22.853Z,50.17
2018-03-02T22:25:50.997Z,45.00
2018-03-02T22:28:19.130Z,43.33
2018-03-02T22:30:47.230Z,44.43
2018-03-02T22:33:15.341Z,41.63
2018-03-02T22:35:43.573Z,43.23
2018-03-02T22:38:11.703Z,44.00
2018-03-02T22:40:39.831Z,45.27
2018-03-02T22:43:07.961Z,43.93
2018-03-02T22:45:36.083Z,44.13
2018-03-02T22:48:04.220Z,44.13
2018-03-02T22:50:32.339Z,45.40
2018-03-02T22:53:00.486Z,47.10
2018-03-02T22:55:28.605Z,44.27
2018-03-02T22:57:56.752Z,45.80
2018-03-02T23:00:24.874Z,44.97
2018-03-02T23:02:52.995Z,48.43
2018-03-02T23:05:21.129Z,46.50
2018-03-02T23:07:49.274Z,48.57
2018-03-02T23:10:17.388Z,45.80
2018-03-02T23:12:45.503Z,48.13
2018-03-02T23:15:13.610Z,46.80
2018-03-02T23:17:41.737Z,47.10
2018-03-02T23:20:09.854Z,48.10
2018-03-02T23:22:37.967Z,46.77
2018-03-02T23:25:06.124Z,49.50
2018-03-02T23:27:34.273Z,47.70
2018-03-02T23:30:02.344Z,46.53
2018-03-02T23:32:30.487Z,47.80
2018-03-02T23:34:58.617Z,47.20
2018-03-02T23:37:26.742Z,47.87
2018-03-02T23:39:54.858Z,47.77
2018-03-02T23:42:22.979Z,47.03
2018-03-02T23:44:51.117Z,46.90
2018-03-02T23:47:19.229Z,46.97
2018-03-02T23:49:47.338Z,47.03
2018-03-02T23:52:15.455Z,46.10
2018-03-02T23:54:43.561Z,48.93
2018-03-02T23:57:11.726Z,47.47
2018-03-02T23:59:39.836Z,46.23
